sensor_id;sensor_type;location;lat;lon;timestamp;P1;durP1;ratioP1;P2;durP2;ratioP2
82125;SDS011;71668;51.400;6.758;2023-08-21T00:00:12;5.13;;;1.90;;
82125;SDS011;71668;51.400;6.758;2023-08-21T00:02:39;5.23;;;1.90;;
82125;SDS011;71668;51.400;6.758;2023-08-21T00:05:07;6.00;;;2.30;;
82125;SDS011;71668;51.400;6.758;2023-08-21T00:07:34;4.60;;;2.07;;
82125;SDS011;71668;51.400;6.758;2023-08-21T00:10:00;2.57;;;1.60;;
82125;SDS011;71668;51.400;6.758;2023-08-21T00:12:27;4.60;;;2.03;;
82125;SDS011;71668;51.400;6.758;2023-08-21T00:14:54;4.00;;;2.00;;
82125;SDS011;71668;51.400;6.758;2023-08-21T00:17:21;3.47;;;1.87;;
82125;SDS011;71668;51.400;6.758;2023-08-21T00:19:48;3.83;;;1.70;;
82125;SDS011;71668;51.400;6.758;2023-08-21T00:22:15;4.07;;;2.17;;
82125;SDS011;71668;51.400;6.758;2023-08-21T00:24:42;5.33;;;2.20;;
82125;SDS011;71668;51.400;6.758;2023-08-21T00:27:09;4.67;;;2.07;;
82125;SDS011;71668;51.400;6.758;2023-08-21T00:29:36;4.53;;;2.10;;
82125;SDS011;71668;51.400;6.758;2023-08-21T00:32:03;5.13;;;2.17;;
82125;SDS011;71668;51.400;6.758;2023-08-21T00:34:30;4.40;;;1.97;;
82125;SDS011;71668;51.400;6.758;2023-08-21T00:36:56;5.60;;;2.00;;
82125;SDS011;71668;51.400;6.758;2023-08-21T00:39:23;5.03;;;1.80;;
82125;SDS011;71668;51.400;6.758;2023-08-21T00:41:50;4.77;;;1.97;;
82125;SDS011;71668;51.400;6.758;2023-08-21T00:44:17;4.77;;;1.87;;
82125;SDS011;71668;51.400;6.758;2023-08-21T00:46:44;3.93;;;2.00;;
82125;SDS011;71668;51.400;6.758;2023-08-21T00:49:10;5.47;;;2.13;;
82125;SDS011;71668;51.400;6.758;2023-08-21T00:51:38;5.10;;;1.80;;
82125;SDS011;71668;51.400;6.758;2023-08-21T00:54:05;4.60;;;2.10;;
82125;SDS011;71668;51.400;6.758;2023-08-21T00:56:32;4.77;;;1.60;;
82125;SDS011;71668;51.400;6.758;2023-08-21T00:59:00;6.60;;;2.03;;
82125;SDS011;71668;51.400;6.758;2023-08-21T01:01:27;4.43;;;1.90;;
82125;SDS011;71668;51.400;6.758;2023-08-21T01:03:55;5.27;;;1.83;;
82125;SDS011;71668;51.400;6.758;2023-08-21T01:06:22;5.77;;;2.23;;
82125;SDS011;71668;51.400;6.758;2023-08-21T01:16:37;5.07;;;2.10;;
82125;SDS011;71668;51.400;6.758;2023-08-21T01:19:07;5.07;;;2.17;;
82125;SDS011;71668;51.400;6.758;2023-08-21T01:21:41;4.17;;;2.00;;
82125;SDS011;71668;51.400;6.758;2023-08-21T01:24:08;6.10;;;2.10;;
82125;SDS011;71668;51.400;6.758;2023-08-21T01:26:34;4.30;;;1.83;;
82125;SDS011;71668;51.400;6.758;2023-08-21T01:29:01;4.17;;;1.93;;
82125;SDS011;71668;51.400;6.758;2023-08-21T01:31:33;4.67;;;2.00;;
82125;SDS011;71668;51.400;6.758;2023-08-21T01:34:04;4.70;;;2.20;;
82125;SDS011;71668;51.400;6.758;2023-08-21T01:36:33;4.70;;;2.00;;
82125;SDS011;71668;51.400;6.758;2023-08-21T01:39:02;6.10;;;2.07;;
82125;SDS011;71668;51.400;6.758;2023-08-21T01:41:32;5.27;;;1.93;;
82125;SDS011;71668;51.400;6.758;2023-08-21T01:44:08;4.73;;;2.17;;
82125;SDS011;71668;51.400;6.758;2023-08-21T01:46:34;5.50;;;2.10;;
82125;SDS011;71668;51.400;6.758;2023-08-21T01:49:01;4.47;;;2.00;;
82125;SDS011;71668;51.400;6.758;2023-08-21T01:51:28;4.37;;;2.10;;
82125;SDS011;71668;51.400;6.758;2023-08-21T01:53:55;4.90;;;2.10;;
82125;SDS011;71668;51.400;6.758;2023-08-21T01:56:22;3.63;;;1.83;;
82125;SDS011;71668;51.400;6.758;2023-08-21T01:58:49;4.70;;;1.90;;
82125;SDS011;71668;51.400;6.758;2023-08-21T02:01:17;3.93;;;2.00;;
82125;SDS011;71668;51.400;6.758;2023-08-21T02:03:45;4.67;;;1.80;;
82125;SDS011;71668;51.400;6.758;2023-08-21T02:06:13;3.03;;;1.77;;
82125;SDS011;71668;51.400;6.758;2023-08-21T02:08:39;3.67;;;1.83;;
82125;SDS011;71668;51.400;6.758;2023-08-21T02:11:06;4.77;;;2.10;;
82125;SDS011;71668;51.400;6.758;2023-08-21T02:13:34;4.10;;;2.27;;
82125;SDS011;71668;51.400;6.758;2023-08-21T02:16:01;4.97;;;1.83;;
82125;SDS011;71668;51.400;6.758;2023-08-21T02:18:28;4.40;;;2.20;;
82125;SDS011;71668;51.400;6.758;2023-08-21T02:20:56;5.87;;;2.07;;
82125;SDS011;71668;51.400;6.758;2023-08-21T02:23:23;3.93;;;1.90;;
82125;SDS011;71668;51.400;6.758;2023-08-21T02:25:50;3.13;;;1.77;;
82125;SDS011;71668;51.400;6.758;2023-08-21T02:28:17;6.07;;;1.90;;
82125;SDS011;71668;51.400;6.758;2023-08-21T02:30:46;6.53;;;2.07;;
82125;SDS011;71668;51.400;6.758;2023-08-21T02:33:13;4.33;;;2.27;;
82125;SDS011;71668;51.400;6.758;2023-08-21T02:35:42;4.97;;;2.00;;
82125;SDS011;71668;51.400;6.758;2023-08-21T02:38:09;4.27;;;1.90;;
82125;SDS011;71668;51.400;6.758;2023-08-21T02:40:36;5.63;;;2.23;;
82125;SDS011;71668;51.400;6.758;2023-08-21T02:43:03;3.80;;;1.90;;
82125;SDS011;71668;51.400;6.758;2023-08-21T02:45:30;3.17;;;1.80;;
82125;SDS011;71668;51.400;6.758;2023-08-21T02:47:57;3.83;;;1.63;;
82125;SDS011;71668;51.400;6.758;2023-08-21T02:50:24;5.77;;;2.10;;
82125;SDS011;71668;51.400;6.758;2023-08-21T02:52:50;5.53;;;2.20;;
82125;SDS011;71668;51.400;6.758;2023-08-21T02:55:17;4.33;;;1.90;;
82125;SDS011;71668;51.400;6.758;2023-08-21T02:57:44;6.87;;;2.23;;
82125;SDS011;71668;51.400;6.758;2023-08-21T03:00:11;6.27;;;2.30;;
82125;SDS011;71668;51.400;6.758;2023-08-21T03:02:38;5.53;;;2.37;;
82125;SDS011;71668;51.400;6.758;2023-08-21T03:05:10;5.87;;;2.00;;
82125;SDS011;71668;51.400;6.758;2023-08-21T03:07:37;4.43;;;2.17;;
82125;SDS011;71668;51.400;6.758;2023-08-21T03:10:05;4.77;;;2.00;;
82125;SDS011;71668;51.400;6.758;2023-08-21T03:12:33;4.97;;;2.40;;
82125;SDS011;71668;51.400;6.758;2023-08-21T03:15:00;4.93;;;2.13;;
82125;SDS011;71668;51.400;6.758;2023-08-21T03:17:27;8.37;;;2.70;;
82125;SDS011;71668;51.400;6.758;2023-08-21T03:19:54;5.60;;;2.10;;
82125;SDS011;71668;51.400;6.758;2023-08-21T03:22:22;4.87;;;2.37;;
82125;SDS011;71668;51.400;6.758;2023-08-21T03:24:49;6.90;;;2.30;;
82125;SDS011;71668;51.400;6.758;2023-08-21T03:27:16;5.43;;;2.20;;
82125;SDS011;71668;51.400;6.758;2023-08-21T03:29:44;4.73;;;2.43;;
82125;SDS011;71668;51.400;6.758;2023-08-21T03:32:18;4.83;;;2.40;;
82125;SDS011;71668;51.400;6.758;2023-08-21T03:34:45;4.20;;;2.00;;
82125;SDS011;71668;51.400;6.758;2023-08-21T03:37:12;6.50;;;1.93;;
82125;SDS011;71668;51.400;6.758;2023-08-21T03:39:39;4.93;;;2.20;;
82125;SDS011;71668;51.400;6.758;2023-08-21T03:42:09;4.77;;;2.03;;
82125;SDS011;71668;51.400;6.758;2023-08-21T03:44:37;5.87;;;2.00;;
82125;SDS011;71668;51.400;6.758;2023-08-21T03:47:04;5.00;;;2.03;;
82125;SDS011;71668;51.400;6.758;2023-08-21T03:49:36;4.00;;;2.10;;
82125;SDS011;71668;51.400;6.758;2023-08-21T03:52:03;5.40;;;2.33;;
82125;SDS011;71668;51.400;6.758;2023-08-21T03:54:29;4.60;;;2.33;;
82125;SDS011;71668;51.400;6.758;2023-08-21T03:56:56;6.97;;;2.33;;
82125;SDS011;71668;51.400;6.758;2023-08-21T03:59:23;4.10;;;2.40;;
82125;SDS011;71668;51.400;6.758;2023-08-21T04:01:53;5.87;;;2.47;;
82125;SDS011;71668;51.400;6.758;2023-08-21T04:04:20;6.70;;;2.60;;
82125;SDS011;71668;51.400;6.758;2023-08-21T04:06:47;4.13;;;2.30;;
82125;SDS011;71668;51.400;6.758;2023-08-21T04:09:14;6.07;;;2.20;;
82125;SDS011;71668;51.400;6.758;2023-08-21T04:11:43;4.13;;;2.43;;
82125;SDS011;71668;51.400;6.758;2023-08-21T04:14:14;4.43;;;2.40;;
82125;SDS011;71668;51.400;6.758;2023-08-21T04:16:40;6.97;;;2.50;;
82125;SDS011;71668;51.400;6.758;2023-08-21T04:19:13;5.43;;;2.50;;
82125;SDS011;71668;51.400;6.758;2023-08-21T04:21:40;7.17;;;2.30;;
82125;SDS011;71668;51.400;6.758;2023-08-21T04:24:06;4.30;;;2.20;;
82125;SDS011;71668;51.400;6.758;2023-08-21T04:26:33;7.47;;;2.30;;
82125;SDS011;71668;51.400;6.758;2023-08-21T04:29:00;6.97;;;2.40;;
82125;SDS011;71668;51.400;6.758;2023-08-21T04:31:30;10.63;;;2.47;;
82125;SDS011;71668;51.400;6.758;2023-08-21T04:33:56;4.23;;;2.00;;
82125;SDS011;71668;51.400;6.758;2023-08-21T04:36:23;4.80;;;2.33;;
82125;SDS011;71668;51.400;6.758;2023-08-21T04:38:50;5.00;;;2.30;;
82125;SDS011;71668;51.400;6.758;2023-08-21T04:41:17;5.47;;;2.33;;
82125;SDS011;71668;51.400;6.758;2023-08-21T04:43:45;3.87;;;2.07;;
82125;SDS011;71668;51.400;6.758;2023-08-21T04:46:13;6.17;;;2.50;;
82125;SDS011;71668;51.400;6.758;2023-08-21T04:48:42;3.67;;;2.20;;
82125;SDS011;71668;51.400;6.758;2023-08-21T04:51:10;4.83;;;2.40;;
82125;SDS011;71668;51.400;6.758;2023-08-21T04:53:37;5.07;;;2.70;;
82125;SDS011;71668;51.400;6.758;2023-08-21T04:56:09;5.37;;;2.53;;
82125;SDS011;71668;51.400;6.758;2023-08-21T04:58:36;7.97;;;2.90;;
82125;SDS011;71668;51.400;6.758;2023-08-21T05:01:04;7.67;;;2.80;;
82125;SDS011;71668;51.400;6.758;2023-08-21T05:03:34;6.03;;;2.70;;
82125;SDS011;71668;51.400;6.758;2023-08-21T05:06:03;5.60;;;2.70;;
82125;SDS011;71668;51.400;6.758;2023-08-21T05:08:32;6.53;;;2.60;;
82125;SDS011;71668;51.400;6.758;2023-08-21T05:11:01;6.83;;;2.93;;
82125;SDS011;71668;51.400;6.758;2023-08-21T05:13:31;4.93;;;2.67;;
82125;SDS011;71668;51.400;6.758;2023-08-21T05:16:01;5.63;;;2.33;;
82125;SDS011;71668;51.400;6.758;2023-08-21T05:18:34;6.77;;;2.40;;
82125;SDS011;71668;51.400;6.758;2023-08-21T05:21:01;6.30;;;2.73;;
82125;SDS011;71668;51.400;6.758;2023-08-21T05:23:28;6.10;;;2.60;;
82125;SDS011;71668;51.400;6.758;2023-08-21T05:26:00;5.40;;;2.10;;
82125;SDS011;71668;51.400;6.758;2023-08-21T05:28:26;3.70;;;2.27;;
82125;SDS011;71668;51.400;6.758;2023-08-21T05:30:53;4.80;;;1.90;;
82125;SDS011;71668;51.400;6.758;2023-08-21T05:33:20;6.50;;;2.73;;
82125;SDS011;71668;51.400;6.758;2023-08-21T05:35:49;5.33;;;2.30;;
82125;SDS011;71668;51.400;6.758;2023-08-21T05:38:16;4.20;;;2.30;;
82125;SDS011;71668;51.400;6.758;2023-08-21T05:40:43;4.60;;;2.10;;
82125;SDS011;71668;51.400;6.758;2023-08-21T05:43:10;5.37;;;2.13;;
82125;SDS011;71668;51.400;6.758;2023-08-21T05:45:40;6.67;;;2.30;;
82125;SDS011;71668;51.400;6.758;2023-08-21T05:48:07;6.13;;;2.40;;
82125;SDS011;71668;51.400;6.758;2023-08-21T05:50:34;6.37;;;2.20;;
82125;SDS011;71668;51.400;6.758;2023-08-21T05:53:06;6.57;;;1.90;;
82125;SDS011;71668;51.400;6.758;2023-08-21T05:55:33;6.37;;;2.27;;
82125;SDS011;71668;51.400;6.758;2023-08-21T05:58:00;6.53;;;2.30;;
82125;SDS011;71668;51.400;6.758;2023-08-21T06:00:27;4.97;;;2.17;;
82125;SDS011;71668;51.400;6.758;2023-08-21T06:02:54;4.73;;;2.10;;
82125;SDS011;71668;51.400;6.758;2023-08-21T06:05:56;5.80;;;2.10;;
82125;SDS011;71668;51.400;6.758;2023-08-21T06:08:23;6.97;;;2.60;;
82125;SDS011;71668;51.400;6.758;2023-08-21T06:10:50;5.00;;;2.47;;
82125;SDS011;71668;51.400;6.758;2023-08-21T06:13:18;6.90;;;2.43;;
82125;SDS011;71668;51.400;6.758;2023-08-21T06:15:48;8.97;;;2.60;;
82125;SDS011;71668;51.400;6.758;2023-08-21T06:18:15;6.20;;;2.50;;
82125;SDS011;71668;51.400;6.758;2023-08-21T06:20:42;6.50;;;2.37;;
82125;SDS011;71668;51.400;6.758;2023-08-21T06:23:10;5.20;;;2.47;;
82125;SDS011;71668;51.400;6.758;2023-08-21T06:25:38;7.57;;;3.10;;
82125;SDS011;71668;51.400;6.758;2023-08-21T06:28:05;7.33;;;2.60;;
82125;SDS011;71668;51.400;6.758;2023-08-21T06:30:31;5.10;;;2.80;;
82125;SDS011;71668;51.400;6.758;2023-08-21T06:32:58;6.93;;;3.23;;
82125;SDS011;71668;51.400;6.758;2023-08-21T06:35:26;9.93;;;3.00;;
82125;SDS011;71668;51.400;6.758;2023-08-21T06:37:53;8.70;;;3.37;;
82125;SDS011;71668;51.400;6.758;2023-08-21T06:40:21;6.77;;;3.17;;
82125;SDS011;71668;51.400;6.758;2023-08-21T06:42:48;6.57;;;2.93;;
82125;SDS011;71668;51.400;6.758;2023-08-21T06:45:22;6.00;;;3.00;;
82125;SDS011;71668;51.400;6.758;2023-08-21T06:47:49;6.47;;;2.90;;
82125;SDS011;71668;51.400;6.758;2023-08-21T06:50:17;4.70;;;2.87;;
82125;SDS011;71668;51.400;6.758;2023-08-21T06:52:43;5.67;;;3.00;;
82125;SDS011;71668;51.400;6.758;2023-08-21T06:55:10;7.70;;;2.92;;
82125;SDS011;71668;51.400;6.758;2023-08-21T06:57:37;5.95;;;2.53;;
82125;SDS011;71668;51.400;6.758;2023-08-21T07:00:07;5.07;;;2.80;;
82125;SDS011;71668;51.400;6.758;2023-08-21T07:02:34;6.70;;;2.97;;
82125;SDS011;71668;51.400;6.758;2023-08-21T07:05:01;7.45;;;2.97;;
82125;SDS011;71668;51.400;6.758;2023-08-21T07:07:29;7.45;;;3.00;;
82125;SDS011;71668;51.400;6.758;2023-08-21T07:09:56;4.28;;;2.67;;
82125;SDS011;71668;51.400;6.758;2023-08-21T07:12:23;5.38;;;2.90;;
82125;SDS011;71668;51.400;6.758;2023-08-21T07:14:50;8.02;;;2.80;;
82125;SDS011;71668;51.400;6.758;2023-08-21T07:17:16;5.22;;;2.80;;
82125;SDS011;71668;51.400;6.758;2023-08-21T07:19:43;6.55;;;3.00;;
82125;SDS011;71668;51.400;6.758;2023-08-21T07:22:12;5.70;;;2.60;;
82125;SDS011;71668;51.400;6.758;2023-08-21T07:24:39;5.00;;;2.78;;
82125;SDS011;71668;51.400;6.758;2023-08-21T07:27:06;4.25;;;2.10;;
82125;SDS011;71668;51.400;6.758;2023-08-21T07:29:33;4.70;;;2.15;;
82125;SDS011;71668;51.400;6.758;2023-08-21T07:32:00;4.45;;;2.40;;
82125;SDS011;71668;51.400;6.758;2023-08-21T07:34:28;4.78;;;2.20;;
82125;SDS011;71668;51.400;6.758;2023-08-21T07:36:55;8.98;;;2.67;;
82125;SDS011;71668;51.400;6.758;2023-08-21T07:39:22;5.55;;;2.53;;
82125;SDS011;71668;51.400;6.758;2023-08-21T07:41:48;7.60;;;2.15;;
82125;SDS011;71668;51.400;6.758;2023-08-21T07:44:15;6.03;;;2.55;;
82125;SDS011;71668;51.400;6.758;2023-08-21T07:46:42;4.78;;;2.47;;
82125;SDS011;71668;51.400;6.758;2023-08-21T07:49:09;7.75;;;2.63;;
82125;SDS011;71668;51.400;6.758;2023-08-21T07:51:36;4.38;;;2.60;;
82125;SDS011;71668;51.400;6.758;2023-08-21T07:54:02;4.22;;;2.67;;
82125;SDS011;71668;51.400;6.758;2023-08-21T07:56:29;4.95;;;2.85;;
82125;SDS011;71668;51.400;6.758;2023-08-21T07:58:56;7.40;;;3.38;;
82125;SDS011;71668;51.400;6.758;2023-08-21T08:01:23;4.65;;;3.50;;
82125;SDS011;71668;51.400;6.758;2023-08-21T08:03:50;4.93;;;4.25;;
82125;SDS011;71668;51.400;6.758;2023-08-21T08:06:17;5.15;;;3.45;;
82125;SDS011;71668;51.400;6.758;2023-08-21T08:08:44;5.43;;;4.80;;
82125;SDS011;71668;51.400;6.758;2023-08-21T08:11:12;6.32;;;3.72;;
82125;SDS011;71668;51.400;6.758;2023-08-21T08:13:39;10.85;;;10.23;;
82125;SDS011;71668;51.400;6.758;2023-08-21T08:16:05;28.77;;;27.00;;
82125;SDS011;71668;51.400;6.758;2023-08-21T08:18:32;1999.90;;;999.90;;
82125;SDS011;71668;51.400;6.758;2023-08-21T08:20:59;1999.90;;;999.90;;
82125;SDS011;71668;51.400;6.758;2023-08-21T08:23:26;1999.90;;;999.90;;
82125;SDS011;71668;51.400;6.758;2023-08-21T08:25:53;1999.90;;;999.90;;
82125;SDS011;71668;51.400;6.758;2023-08-21T08:28:19;1999.90;;;999.90;;
82125;SDS011;71668;51.400;6.758;2023-08-21T08:30:46;1999.90;;;999.90;;
82125;SDS011;71668;51.400;6.758;2023-08-21T08:33:13;1999.90;;;999.90;;
82125;SDS011;71668;51.400;6.758;2023-08-21T08:35:40;1999.90;;;999.90;;
82125;SDS011;71668;51.400;6.758;2023-08-21T08:38:07;1999.90;;;999.90;;
82125;SDS011;71668;51.400;6.758;2023-08-21T08:40:34;1999.90;;;999.90;;
82125;SDS011;71668;51.400;6.758;2023-08-21T08:43:09;1999.90;;;999.90;;
82125;SDS011;71668;51.400;6.758;2023-08-21T08:45:37;1999.90;;;999.90;;
82125;SDS011;71668;51.400;6.758;2023-08-21T08:48:06;1999.90;;;999.90;;
82125;SDS011;71668;51.400;6.758;2023-08-21T08:50:34;1999.90;;;999.90;;
82125;SDS011;71668;51.400;6.758;2023-08-21T08:53:01;1999.90;;;999.90;;
82125;SDS011;71668;51.400;6.758;2023-08-21T08:55:41;1999.90;;;999.90;;
82125;SDS011;71668;51.400;6.758;2023-08-21T08:58:08;50.58;;;45.85;;
82125;SDS011;71668;51.400;6.758;2023-08-21T09:00:35;143.32;;;137.07;;
82125;SDS011;71668;51.400;6.758;2023-08-21T09:03:01;39.58;;;37.50;;
82125;SDS011;71668;51.400;6.758;2023-08-21T09:05:29;17.35;;;16.35;;
82125;SDS011;71668;51.400;6.758;2023-08-21T09:08:01;18.45;;;17.38;;
82125;SDS011;71668;51.400;6.758;2023-08-21T09:10:38;14.15;;;13.05;;
82125;SDS011;71668;51.400;6.758;2023-08-21T09:13:16;13.38;;;12.38;;
82125;SDS011;71668;51.400;6.758;2023-08-21T09:15:45;6.82;;;4.10;;
82125;SDS011;71668;51.400;6.758;2023-08-21T09:18:15;10.20;;;9.50;;
82125;SDS011;71668;51.400;6.758;2023-08-21T09:20:43;6.82;;;4.50;;
82125;SDS011;71668;51.400;6.758;2023-08-21T09:23:13;5.47;;;4.15;;
82125;SDS011;71668;51.400;6.758;2023-08-21T09:25:44;8.88;;;8.27;;
82125;SDS011;71668;51.400;6.758;2023-08-21T09:28:14;4.50;;;2.40;;
82125;SDS011;71668;51.400;6.758;2023-08-21T09:30:47;5.38;;;2.22;;
82125;SDS011;71668;51.400;6.758;2023-08-21T09:33:19;5.63;;;2.70;;
82125;SDS011;71668;51.400;6.758;2023-08-21T09:35:47;6.75;;;2.50;;
82125;SDS011;71668;51.400;6.758;2023-08-21T09:38:15;5.05;;;2.00;;
82125;SDS011;71668;51.400;6.758;2023-08-21T09:40:42;4.88;;;2.03;;
82125;SDS011;71668;51.400;6.758;2023-08-21T09:43:15;7.70;;;2.50;;
82125;SDS011;71668;51.400;6.758;2023-08-21T09:45:45;6.05;;;1.92;;
82125;SDS011;71668;51.400;6.758;2023-08-21T09:48:16;6.10;;;2.05;;
82125;SDS011;71668;51.400;6.758;2023-08-21T09:50:44;4.82;;;2.20;;
82125;SDS011;71668;51.400;6.758;2023-08-21T09:53:13;4.65;;;2.40;;
82125;SDS011;71668;51.400;6.758;2023-08-21T09:55:40;7.25;;;2.28;;
82125;SDS011;71668;51.400;6.758;2023-08-21T09:58:08;5.97;;;2.33;;
82125;SDS011;71668;51.400;6.758;2023-08-21T10:00:36;5.00;;;2.40;;
82125;SDS011;71668;51.400;6.758;2023-08-21T10:03:06;6.35;;;2.42;;
82125;SDS011;71668;51.400;6.758;2023-08-21T10:05:43;7.05;;;2.60;;
82125;SDS011;71668;51.400;6.758;2023-08-21T10:08:11;7.65;;;2.47;;
82125;SDS011;71668;51.400;6.758;2023-08-21T10:10:40;4.72;;;2.38;;
82125;SDS011;71668;51.400;6.758;2023-08-21T10:13:07;6.32;;;2.38;;
82125;SDS011;71668;51.400;6.758;2023-08-21T10:15:34;3.60;;;2.10;;
82125;SDS011;71668;51.400;6.758;2023-08-21T10:18:22;4.43;;;2.00;;
82125;SDS011;71668;51.400;6.758;2023-08-21T10:20:51;4.93;;;1.98;;
82125;SDS011;71668;51.400;6.758;2023-08-21T10:23:25;6.07;;;2.45;;
82125;SDS011;71668;51.400;6.758;2023-08-21T10:25:55;6.75;;;2.55;;
82125;SDS011;71668;51.400;6.758;2023-08-21T10:28:48;6.47;;;2.40;;
82125;SDS011;71668;51.400;6.758;2023-08-21T10:34:05;5.00;;;2.50;;
82125;SDS011;71668;51.400;6.758;2023-08-21T10:39:16;4.50;;;2.20;;
82125;SDS011;71668;51.400;6.758;2023-08-21T10:41:57;4.60;;;2.30;;
82125;SDS011;71668;51.400;6.758;2023-08-21T10:44:38;4.60;;;2.30;;
82125;SDS011;71668;51.400;6.758;2023-08-21T10:50:01;4.53;;;2.10;;
82125;SDS011;71668;51.400;6.758;2023-08-21T10:52:37;3.17;;;1.83;;
82125;SDS011;71668;51.400;6.758;2023-08-21T10:55:09;3.90;;;2.15;;
82125;SDS011;71668;51.400;6.758;2023-08-21T10:57:37;6.68;;;2.30;;
82125;SDS011;71668;51.400;6.758;2023-08-21T11:00:06;4.28;;;2.22;;
82125;SDS011;71668;51.400;6.758;2023-08-21T11:02:38;6.18;;;2.50;;
82125;SDS011;71668;51.400;6.758;2023-08-21T11:05:10;5.57;;;2.28;;
82125;SDS011;71668;51.400;6.758;2023-08-21T11:07:42;3.80;;;2.17;;
82125;SDS011;71668;51.400;6.758;2023-08-21T11:10:14;6.03;;;2.47;;
82125;SDS011;71668;51.400;6.758;2023-08-21T11:15:17;7.13;;;2.30;;
82125;SDS011;71668;51.400;6.758;2023-08-21T11:17:59;7.38;;;2.53;;
82125;SDS011;71668;51.400;6.758;2023-08-21T11:20:31;5.93;;;2.00;;
82125;SDS011;71668;51.400;6.758;2023-08-21T11:23:03;6.32;;;2.30;;
82125;SDS011;71668;51.400;6.758;2023-08-21T11:25:38;4.95;;;2.42;;
82125;SDS011;71668;51.400;6.758;2023-08-21T11:28:06;4.35;;;2.03;;
82125;SDS011;71668;51.400;6.758;2023-08-21T11:30:34;4.85;;;2.00;;
82125;SDS011;71668;51.400;6.758;2023-08-21T11:33:09;6.60;;;2.50;;
82125;SDS011;71668;51.400;6.758;2023-08-21T11:35:40;5.75;;;2.10;;
82125;SDS011;71668;51.400;6.758;2023-08-21T11:38:17;4.72;;;2.00;;
82125;SDS011;71668;51.400;6.758;2023-08-21T11:40:55;7.68;;;2.50;;
82125;SDS011;71668;51.400;6.758;2023-08-21T11:43:40;4.60;;;2.22;;
82125;SDS011;71668;51.400;6.758;2023-08-21T11:46:10;6.18;;;2.28;;
82125;SDS011;71668;51.400;6.758;2023-08-21T11:48:38;5.25;;;2.00;;
82125;SDS011;71668;51.400;6.758;2023-08-21T11:51:06;4.85;;;2.20;;
82125;SDS011;71668;51.400;6.758;2023-08-21T11:56:16;4.35;;;1.92;;
82125;SDS011;71668;51.400;6.758;2023-08-21T11:58:46;4.93;;;3.20;;
82125;SDS011;71668;51.400;6.758;2023-08-21T12:01:16;3.78;;;2.03;;
82125;SDS011;71668;51.400;6.758;2023-08-21T12:03:44;5.93;;;2.30;;
82125;SDS011;71668;51.400;6.758;2023-08-21T12:06:11;7.47;;;2.30;;
82125;SDS011;71668;51.400;6.758;2023-08-21T12:08:39;6.45;;;2.60;;
82125;SDS011;71668;51.400;6.758;2023-08-21T12:11:06;7.30;;;2.50;;
82125;SDS011;71668;51.400;6.758;2023-08-21T12:13:33;4.95;;;2.70;;
82125;SDS011;71668;51.400;6.758;2023-08-21T12:16:01;4.57;;;2.30;;
82125;SDS011;71668;51.400;6.758;2023-08-21T12:18:29;5.10;;;2.30;;
82125;SDS011;71668;51.400;6.758;2023-08-21T12:20:58;6.67;;;2.57;;
82125;SDS011;71668;51.400;6.758;2023-08-21T12:23:28;4.90;;;2.40;;
82125;SDS011;71668;51.400;6.758;2023-08-21T12:25:56;5.07;;;2.40;;
82125;SDS011;71668;51.400;6.758;2023-08-21T12:28:24;5.27;;;2.70;;
82125;SDS011;71668;51.400;6.758;2023-08-21T12:30:52;5.53;;;1.93;;
82125;SDS011;71668;51.400;6.758;2023-08-21T12:33:19;8.77;;;2.53;;
82125;SDS011;71668;51.400;6.758;2023-08-21T12:35:50;4.10;;;2.23;;
82125;SDS011;71668;51.400;6.758;2023-08-21T12:38:17;4.33;;;2.37;;
82125;SDS011;71668;51.400;6.758;2023-08-21T12:40:45;7.30;;;2.53;;
82125;SDS011;71668;51.400;6.758;2023-08-21T12:43:12;5.47;;;2.27;;
82125;SDS011;71668;51.400;6.758;2023-08-21T12:45:39;5.47;;;2.30;;
82125;SDS011;71668;51.400;6.758;2023-08-21T12:48:06;4.00;;;1.83;;
82125;SDS011;71668;51.400;6.758;2023-08-21T12:50:33;4.63;;;2.10;;
82125;SDS011;71668;51.400;6.758;2023-08-21T12:52:59;3.37;;;1.87;;
82125;SDS011;71668;51.400;6.758;2023-08-21T12:55:27;5.60;;;2.40;;
82125;SDS011;71668;51.400;6.758;2023-08-21T12:57:55;6.93;;;2.60;;
82125;SDS011;71668;51.400;6.758;2023-08-21T13:00:22;8.13;;;2.70;;
82125;SDS011;71668;51.400;6.758;2023-08-21T13:02:49;5.77;;;2.50;;
82125;SDS011;71668;51.400;6.758;2023-08-21T13:05:16;6.57;;;2.40;;
82125;SDS011;71668;51.400;6.758;2023-08-21T13:07:43;6.50;;;3.20;;
82125;SDS011;71668;51.400;6.758;2023-08-21T13:10:10;5.90;;;2.95;;
82125;SDS011;71668;51.400;6.758;2023-08-21T13:12:37;4.50;;;2.30;;
82125;SDS011;71668;51.400;6.758;2023-08-21T13:15:04;8.13;;;2.72;;
82125;SDS011;71668;51.400;6.758;2023-08-21T13:17:34;8.88;;;2.50;;
82125;SDS011;71668;51.400;6.758;2023-08-21T13:20:01;7.38;;;2.30;;
82125;SDS011;71668;51.400;6.758;2023-08-21T13:22:28;5.65;;;2.25;;
82125;SDS011;71668;51.400;6.758;2023-08-21T13:25:10;7.13;;;2.90;;
82125;SDS011;71668;51.400;6.758;2023-08-21T13:27:36;5.23;;;2.67;;
82125;SDS011;71668;51.400;6.758;2023-08-21T13:30:04;7.00;;;2.90;;
82125;SDS011;71668;51.400;6.758;2023-08-21T13:32:31;6.23;;;3.07;;
82125;SDS011;71668;51.400;6.758;2023-08-21T13:34:58;6.57;;;2.93;;
82125;SDS011;71668;51.400;6.758;2023-08-21T13:37:25;5.03;;;2.77;;
82125;SDS011;71668;51.400;6.758;2023-08-21T13:39:53;5.57;;;2.90;;
82125;SDS011;71668;51.400;6.758;2023-08-21T13:42:22;5.63;;;3.00;;
82125;SDS011;71668;51.400;6.758;2023-08-21T13:44:49;8.70;;;3.90;;
82125;SDS011;71668;51.400;6.758;2023-08-21T13:47:18;6.97;;;3.13;;
82125;SDS011;71668;51.400;6.758;2023-08-21T13:49:45;4.73;;;2.50;;
82125;SDS011;71668;51.400;6.758;2023-08-21T13:52:11;6.33;;;2.77;;
82125;SDS011;71668;51.400;6.758;2023-08-21T13:54:38;8.27;;;2.87;;
82125;SDS011;71668;51.400;6.758;2023-08-21T13:57:05;7.57;;;2.83;;
82125;SDS011;71668;51.400;6.758;2023-08-21T13:59:32;6.93;;;2.80;;
82125;SDS011;71668;51.400;6.758;2023-08-21T14:01:59;7.80;;;2.70;;
82125;SDS011;71668;51.400;6.758;2023-08-21T14:04:25;5.10;;;2.80;;
82125;SDS011;71668;51.400;6.758;2023-08-21T14:06:52;6.27;;;2.93;;
82125;SDS011;71668;51.400;6.758;2023-08-21T14:09:19;6.40;;;3.10;;
82125;SDS011;71668;51.400;6.758;2023-08-21T14:11:46;6.70;;;3.37;;
82125;SDS011;71668;51.400;6.758;2023-08-21T14:14:13;5.73;;;2.70;;
82125;SDS011;71668;51.400;6.758;2023-08-21T14:16:39;3.97;;;2.27;;
82125;SDS011;71668;51.400;6.758;2023-08-21T14:19:06;10.07;;;2.93;;
82125;SDS011;71668;51.400;6.758;2023-08-21T14:21:33;8.03;;;3.30;;
82125;SDS011;71668;51.400;6.758;2023-08-21T14:24:00;9.83;;;3.27;;
82125;SDS011;71668;51.400;6.758;2023-08-21T14:26:27;7.17;;;3.37;;
82125;SDS011;71668;51.400;6.758;2023-08-21T14:28:54;7.13;;;3.53;;
82125;SDS011;71668;51.400;6.758;2023-08-21T14:31:21;4.40;;;3.20;;
82125;SDS011;71668;51.400;6.758;2023-08-21T14:33:48;8.60;;;3.40;;
82125;SDS011;71668;51.400;6.758;2023-08-21T14:36:15;6.60;;;3.43;;
82125;SDS011;71668;51.400;6.758;2023-08-21T14:38:42;6.00;;;3.07;;
82125;SDS011;71668;51.400;6.758;2023-08-21T14:41:09;5.77;;;2.70;;
82125;SDS011;71668;51.400;6.758;2023-08-21T14:43:36;4.20;;;2.50;;
82125;SDS011;71668;51.400;6.758;2023-08-21T14:46:02;4.23;;;2.70;;
82125;SDS011;71668;51.400;6.758;2023-08-21T14:48:30;5.33;;;3.10;;
82125;SDS011;71668;51.400;6.758;2023-08-21T14:50:57;5.67;;;3.07;;
82125;SDS011;71668;51.400;6.758;2023-08-21T14:53:24;5.97;;;2.97;;
82125;SDS011;71668;51.400;6.758;2023-08-21T14:55:53;6.00;;;2.87;;
82125;SDS011;71668;51.400;6.758;2023-08-21T14:58:20;7.10;;;3.23;;
82125;SDS011;71668;51.400;6.758;2023-08-21T15:00:47;6.97;;;3.27;;
82125;SDS011;71668;51.400;6.758;2023-08-21T15:03:17;4.83;;;3.13;;
82125;SDS011;71668;51.400;6.758;2023-08-21T15:05:45;7.90;;;3.30;;
82125;SDS011;71668;51.400;6.758;2023-08-21T15:08:11;7.00;;;3.03;;
82125;SDS011;71668;51.400;6.758;2023-08-21T15:10:38;5.53;;;3.20;;